Time;durP1;ratioP1;P1;durP2;ratioP2;P2;SDS_P1;SDS_P2;PMS_P1;PMS_P2;Temp;Humidity;BMP_temperature;BMP_pressure;BME280_temperature;BME280_humidity;BME280_pressure;Samples;Min_cycle;Max_cycle;Signal;HPM_P1;HPM_P2
2021/07/12 00:02:58;;;;;;;16.50;10.57;;;;;;;18.82;87.13;101442.31;10109411;28;20042;-69
2021/07/12 00:07:57;;;;;;;18.80;12.77;;;;;;;18.80;87.10;101450.19;10107257;28;20047;-69
2021/07/12 00:12:55;;;;;;;14.52;11.07;;;;;;;18.72;86.75;101443.63;10108592;28;20586;-70
2021/07/12 00:17:52;;;;;;;16.98;11.65;;;;;;;18.64;87.15;101430.75;10104836;28;20066;-69
2021/07/12 00:22:50;;;;;;;17.75;10.82;;;;;;;18.61;86.40;101435.06;10102567;28;20142;-69
2021/07/12 00:27:47;;;;;;;14.65;10.40;;;;;;;18.56;86.28;101438.06;10096047;28;20043;-69
2021/07/12 00:32:45;;;;;;;13.85;11.07;;;;;;;18.54;86.23;101436.81;10103814;28;20070;-69
2021/07/12 00:37:42;;;;;;;12.32;10.98;;;;;;;18.50;86.34;101431.19;10095430;28;20055;-69
2021/07/12 00:42:39;;;;;;;15.35;10.45;;;;;;;18.43;86.04;101425.47;10107126;28;20145;-69
2021/07/12 00:47:36;;;;;;;11.95;10.60;;;;;;;18.37;86.39;101427.66;10116576;28;20078;-69
2021/07/12 00:52:33;;;;;;;13.95;10.38;;;;;;;18.33;86.15;101428.72;10108645;28;20105;-69
2021/07/12 00:57:30;;;;;;;15.25;11.00;;;;;;;18.28;86.03;101419.50;10110432;28;20486;-69
2021/07/12 01:08:04;;;;;;;16.10;11.30;;;;;;;18.19;85.96;101424.41;11073271;23;20647;-69
2021/07/12 01:13:16;;;;;;;13.88;10.02;;;;;;;18.17;85.78;101435.03;10103251;28;20463;-70
2021/07/12 01:18:38;;;;;;;17.58;9.10;;;;;;;18.14;85.88;101438.50;10098288;28;20115;-69
2021/07/12 01:24:22;;;;;;;10.98;9.32;;;;;;;18.09;85.79;101434.00;10111543;28;20035;-68
2021/07/12 01:30:01;;;;;;;10.93;9.35;;;;;;;18.06;85.47;101439.47;10059817;28;20127;-68
2021/07/12 01:35:19;;;;;;;12.65;11.00;;;;;;;18.01;85.25;101447.97;10114482;28;20055;-69
2021/07/12 01:40:27;;;;;;;13.45;9.40;;;;;;;17.98;85.55;101434.88;10108398;28;20518;-69
2021/07/12 01:45:28;;;;;;;12.50;9.63;;;;;;;17.93;85.40;101421.28;10110858;28;20078;-69
2021/07/12 01:50:42;;;;;;;10.32;8.38;;;;;;;17.93;85.36;101424.06;10123054;28;20126;-70
2021/07/12 01:55:52;;;;;;;9.93;8.88;;;;;;;17.94;85.82;101428.41;10120931;28;20504;-69
2021/07/12 02:00:49;;;;;;;13.63;10.60;;;;;;;17.86;86.02;101414.38;10097432;28;20070;-71
2021/07/12 02:05:46;;;;;;;16.13;10.23;;;;;;;17.88;85.39;101395.47;10108986;28;20061;-70
2021/07/12 02:10:45;;;;;;;16.17;9.70;;;;;;;17.88;85.91;101395.47;10115176;28;20050;-68
2021/07/12 02:15:46;;;;;;;13.85;9.52;;;;;;;17.83;85.60;101390.19;10104526;28;20073;-69
2021/07/12 02:20:46;;;;;;;10.95;9.52;;;;;;;17.81;85.50;101384.19;10119801;28;20051;-68
2021/07/12 02:25:44;;;;;;;14.93;9.80;;;;;;;17.72;85.33;101391.81;10115400;28;20097;-69
2021/07/12 02:30:43;;;;;;;11.63;10.13;;;;;;;17.70;85.26;101388.56;10110849;28;20042;-69
2021/07/12 02:35:41;;;;;;;12.65;9.57;;;;;;;17.64;85.24;101384.47;10114613;28;20094;-69
2021/07/12 02:40:38;;;;;;;14.15;9.95;;;;;;;17.60;85.09;101386.31;10101954;28;20047;-68
2021/07/12 02:45:37;;;;;;;14.23;9.98;;;;;;;17.54;85.03;101380.22;10112889;28;20046;-68
2021/07/12 02:50:33;;;;;;;17.58;10.07;;;;;;;17.54;85.23;101384.94;10116243;28;20145;-68
2021/07/12 02:55:30;;;;;;;13.85;9.07;;;;;;;17.51;85.08;101375.38;10107802;28;20074;-69
2021/07/12 03:00:26;;;;;;;12.60;11.13;;;;;;;17.49;84.80;101369.41;10110807;28;20082;-70
2021/07/12 03:05:23;;;;;;;12.65;9.30;;;;;;;17.45;84.84;101366.53;10099617;28;20050;-68
2021/07/12 03:10:22;;;;;;;14.48;9.93;;;;;;;17.41;84.73;101359.28;10098437;28;20687;-69
2021/07/12 03:15:27;;;;;;;14.80;10.25;;;;;;;17.39;84.85;101356.06;10109533;28;20051;-69
2021/07/12 03:20:27;;;;;;;11.13;9.68;;;;;;;17.34;84.85;101359.88;10108534;28;20077;-68
2021/07/12 03:25:28;;;;;;;12.88;10.13;;;;;;;17.32;84.98;101361.38;10114729;28;20054;-68
2021/07/12 03:30:30;;;;;;;12.65;9.30;;;;;;;17.28;84.92;101360.47;10116768;28;20105;-68
2021/07/12 03:35:35;;;;;;;16.10;10.95;;;;;;;17.26;85.08;101352.50;10116076;28;20067;-69
2021/07/12 03:40:32;;;;;;;13.15;10.95;;;;;;;17.24;85.10;101355.63;10116411;28;20058;-68
2021/07/12 03:45:29;;;;;;;14.32;9.77;;;;;;;17.22;85.40;101357.13;10114694;28;20069;-69
2021/07/12 03:50:28;;;;;;;11.55;10.35;;;;;;;17.21;85.18;101352.75;10107205;28;20057;-70
2021/07/12 03:55:24;;;;;;;11.18;10.02;;;;;;;17.21;85.31;101352.75;10113636;28;20069;-68
2021/07/12 04:00:24;;;;;;;15.07;10.50;;;;;;;17.21;85.40;101349.97;10103913;28;20046;-69
2021/07/12 04:05:24;;;;;;;13.43;10.63;;;;;;;17.21;85.44;101349.97;10103026;28;20134;-69
2021/07/12 04:10:21;;;;;;;10.88;9.52;;;;;;;17.20;85.45;101342.88;10115061;28;20066;-69
2021/07/12 04:15:18;;;;;;;13.50;10.45;;;;;;;17.22;85.63;101346.09;10105994;28;20047;-68
2021/07/12 04:20:15;;;;;;;13.65;10.30;;;;;;;17.23;85.79;101347.69;10116685;28;20614;-67
2021/07/12 04:25:13;;;;;;;17.58;12.00;;;;;;;17.24;86.12;101343.75;10112836;28;20085;-67
2021/07/12 04:30:10;;;;;;;13.23;11.15;;;;;;;17.23;86.21;101331.09;10089014;28;20050;-67
2021/07/12 04:35:07;;;;;;;11.80;9.48;;;;;;;17.25;86.12;101351.72;10107435;28;20047;-68
2021/07/12 04:40:05;;;;;;;12.50;10.25;;;;;;;17.29;86.24;101338.00;10096280;28;20053;-68
2021/07/12 04:45:03;;;;;;;12.57;11.07;;;;;;;17.32;86.15;101331.78;10087953;28;20130;-66
2021/07/12 04:50:00;;;;;;;14.85;10.60;;;;;;;17.37;86.67;101331.53;10098068;28;20551;-68
2021/07/12 04:55:06;;;;;;;13.27;10.93;;;;;;;17.40;86.96;101330.03;10101525;28;20129;-67
2021/07/12 05:00:08;;;;;;;15.63;10.87;;;;;;;17.44;87.13;101326.22;10089955;28;20164;-68
2021/07/12 05:05:09;;;;;;;15.63;9.63;;;;;;;17.51;87.11;101327.59;10088457;28;20178;-68
2021/07/12 05:10:07;;;;;;;14.68;10.80;;;;;;;17.57;87.17;101328.97;10091341;28;20086;-68
2021/07/12 05:15:05;;;;;;;15.90;11.57;;;;;;;17.64;87.67;101329.97;10100543;28;20136;-68
2021/07/12 05:20:03;;;;;;;13.07;9.65;;;;;;;17.71;87.29;101329.38;10098014;28;20130;-68
2021/07/12 05:25:00;;;;;;;11.15;9.98;;;;;;;17.78;87.38;101335.09;10099404;28;20504;-69
2021/07/12 05:29:56;;;;;;;14.65;10.65;;;;;;;17.81;87.55;101328.88;10089146;28;20066;-68
2021/07/12 05:34:53;;;;;;;13.02;10.05;;;;;;;17.86;87.57;101320.31;10090628;28;20078;-68
2021/07/12 05:39:49;;;;;;;12.10;10.32;;;;;;;17.96;87.52;101329.28;10094503;28;20453;-68
2021/07/12 05:44:46;;;;;;;11.70;9.75;;;;;;;18.01;87.65;101326.25;10085229;28;20051;-68
2021/07/12 05:49:42;;;;;;;11.95;9.75;;;;;;;18.07;87.23;101324.84;10097554;28;20039;-69
2021/07/12 05:54:39;;;;;;;10.52;9.23;;;;;;;18.16;86.69;101317.19;10115345;28;20097;-68
2021/07/12 05:59:36;;;;;;;12.20;10.77;;;;;;;18.20;86.93;101322.81;10111918;28;20070;-69
2021/07/12 06:04:33;;;;;;;13.05;8.50;;;;;;;18.27;86.81;101323.81;10111028;28;20047;-68
2021/07/12 06:09:30;;;;;;;12.45;9.15;;;;;;;18.36;86.43;101329.19;10091997;28;20083;-68
2021/07/12 06:14:26;;;;;;;14.20;9.70;;;;;;;18.43;86.70;101320.25;10092473;28;20138;-68
2021/07/12 06:19:22;;;;;;;11.63;9.68;;;;;;;18.50;86.81;101314.88;10084151;28;20042;-68
2021/07/12 06:24:19;;;;;;;11.40;8.73;;;;;;;18.58;86.30;101322.19;10087666;28;20055;-68
2021/07/12 06:29:17;;;;;;;10.10;9.07;;;;;;;18.64;86.21;101326.31;10085404;28;20055;-69
2021/07/12 06:34:13;;;;;;;10.25;9.10;;;;;;;18.76;85.79;101321.84;10092188;28;20143;-68
2021/07/12 06:39:10;;;;;;;9.80;8.77;;;;;;;18.86;85.12;101321.31;10089131;28;20043;-68
2021/07/12 06:44:06;;;;;;;11.68;9.55;;;;;;;18.95;85.17;101321.94;10100546;28;20047;-69
2021/07/12 06:49:03;;;;;;;10.93;7.82;;;;;;;19.06;84.45;101325.75;10106736;28;20046;-68
2021/07/12 06:54:00;;;;;;;13.98;8.85;;;;;;;19.16;84.50;101312.50;10098106;28;20055;-68
2021/07/12 06:58:56;;;;;;;10.15;8.45;;;;;;;19.25;84.02;101310.31;10094749;28;20043;-68
2021/07/12 07:03:53;;;;;;;10.52;8.35;;;;;;;19.30;83.38;101301.72;10113937;28;20412;-68
2021/07/12 07:08:49;;;;;;;9.57;7.60;;;;;;;19.50;81.14;101294.22;10093231;28;20130;-69
2021/07/12 07:13:46;;;;;;;11.35;8.65;;;;;;;19.61;82.25;101294.41;10088738;28;20047;-68
2021/07/12 07:18:44;;;;;;;9.88;7.57;;;;;;;19.73;80.72;101284.03;10100213;28;20054;-68
2021/07/12 07:23:41;;;;;;;9.52;7.97;;;;;;;19.85;81.49;101283.06;10100366;28;20117;-67
2021/07/12 07:28:39;;;;;;;12.02;8.32;;;;;;;20.00;80.92;101280.53;10095859;28;20073;-68
2021/07/12 07:33:35;;;;;;;10.00;6.97;;;;;;;20.13;80.56;101271.66;10106819;28;20043;-68
2021/07/12 07:38:32;;;;;;;9.32;8.05;;;;;;;20.26;80.69;101263.97;10107700;28;20468;-67
2021/07/12 07:43:29;;;;;;;9.43;7.30;;;;;;;20.42;79.90;101254.69;10112521;28;20051;-68
2021/07/12 07:48:25;;;;;;;9.35;7.05;;;;;;;20.56;79.54;101264.09;10119189;28;20332;-68
2021/07/12 07:53:22;;;;;;;9.48;6.82;;;;;;;20.73;78.07;101265.53;10114055;28;20051;-67
2021/07/12 07:58:18;;;;;;;8.95;6.30;;;;;;;20.85;77.87;101255.38;10096490;28;20215;-68
2021/07/12 08:03:15;;;;;;;11.80;6.97;;;;;;;20.99;74.55;101255.56;10118246;28;20039;-68
2021/07/12 08:08:12;;;;;;;8.43;6.45;;;;;;;21.21;76.64;101257.47;10112017;28;20043;-68
2021/07/12 08:13:09;;;;;;;9.88;7.07;;;;;;;21.37;75.54;101260.03;10111483;28;20540;-68
2021/07/12 08:18:06;;;;;;;8.48;6.78;;;;;;;21.45;72.68;101266.53;10109987;28;20062;-68
2021/07/12 08:23:03;;;;;;;6.90;6.10;;;;;;;21.58;71.33;101265.09;10116280;28;20046;-68
2021/07/12 08:28:01;;;;;;;9.93;6.95;;;;;;;21.75;72.11;101257.31;10112571;28;20427;-68
2021/07/12 08:32:57;;;;;;;10.35;6.05;;;;;;;21.92;70.79;101256.69;10098830;28;20516;-68
2021/07/12 08:37:55;;;;;;;9.35;5.95;;;;;;;22.01;66.21;101254.41;10088996;28;20042;-69
2021/07/12 08:42:54;;;;;;;7.13;6.22;;;;;;;22.22;69.73;101250.25;10081236;28;20047;-68
2021/07/12 08:47:51;;;;;;;6.63;5.40;;;;;;;22.41;68.01;101238.84;10086210;28;20520;-69
2021/07/12 08:52:50;;;;;;;8.88;6.28;;;;;;;22.65;67.75;101247.75;10086527;28;20528;-69
2021/07/12 08:58:02;;;;;;;5.85;5.25;;;;;;;22.83;64.83;101243.09;10089222;28;20569;-69
2021/07/12 09:03:24;;;;;;;7.37;5.93;;;;;;;23.12;66.02;101243.31;10104383;28;20042;-69
2021/07/12 09:08:37;;;;;;;7.00;5.20;;;;;;;23.34;66.75;101237.81;10114130;28;21253;-69
2021/07/12 09:13:43;;;;;;;6.82;5.35;;;;;;;23.38;65.15;101233.03;10101642;28;20043;-68
2021/07/12 09:18:39;;;;;;;6.18;4.78;;;;;;;23.59;62.70;101230.31;10106691;28;20093;-68
2021/07/12 09:23:36;;;;;;;6.43;4.85;;;;;;;23.85;63.76;101222.81;10112855;28;20077;-69
2021/07/12 09:28:45;;;;;;;7.20;4.40;;;;;;;24.01;63.54;101226.00;10098769;28;20082;-68
2021/07/12 09:33:49;;;;;;;6.18;4.07;;;;;;;24.09;62.85;101230.41;10116368;28;20094;-68
2021/07/12 09:39:23;;;;;;;6.55;3.85;;;;;;;24.18;63.21;101229.22;10108800;28;20460;-68
2021/07/12 09:44:22;;;;;;;8.93;4.30;;;;;;;24.10;63.87;101220.84;10095691;28;20126;-67
2021/07/12 09:49:22;;;;;;;6.00;4.43;;;;;;;23.99;63.89;101211.66;10086849;28;20129;-68
2021/07/12 09:54:23;;;;;;;8.82;4.70;;;;;;;24.34;61.46;101208.06;10098076;28;20084;-68
2021/07/12 09:59:21;;;;;;;5.05;4.00;;;;;;;24.41;61.57;101209.25;10091478;28;20090;-68
2021/07/12 10:04:19;;;;;;;6.18;4.05;;;;;;;24.77;61.11;101210.00;10087294;28;20043;-70
2021/07/12 10:09:22;;;;;;;6.68;3.67;;;;;;;24.96;59.31;101205.94;10094933;28;20476;-68
2021/07/12 10:14:19;;;;;;;;;;;;;;;24.98;59.15;101193.16;10085881;28;20054;-69
2021/07/12 10:19:16;;;;;;;6.13;4.10;;;;;;;24.88;59.64;101191.19;10091359;28;19934;-70
2021/07/12 10:24:15;;;;;;;5.53;4.90;;;;;;;25.63;60.09;101176.03;10082010;28;20047;-70
2021/07/12 10:29:14;;;;;;;7.80;4.30;;;;;;;25.55;57.55;101169.69;10088625;28;20047;-69
2021/07/12 10:34:32;;;;;;;6.55;4.53;;;;;;;25.26;59.76;101162.69;10084764;28;20039;-69
2021/07/12 10:40:10;;;;;;;6.40;4.20;;;;;;;25.25;58.29;101159.09;10086175;28;20662;-69
2021/07/12 10:45:28;;;;;;;7.07;4.13;;;;;;;25.37;56.60;101153.03;10103190;28;20051;-70
2021/07/12 10:50:34;;;;;;;6.32;4.20;;;;;;;26.24;58.29;101151.13;10096982;28;20124;-70
2021/07/12 10:55:34;;;;;;;5.47;2.92;;;;;;;26.42;53.73;101136.16;10094422;28;20047;-70
2021/07/12 11:00:36;;;;;;;5.53;3.22;;;;;;;27.55;49.67;101142.72;10100835;28;20043;-70
2021/07/12 11:05:50;;;;;;;5.78;3.30;;;;;;;28.50;48.65;101136.72;10095105;28;20409;-69
2021/07/12 11:10:50;;;;;;;4.00;2.83;;;;;;;29.63;42.69;101139.47;10095737;28;20071;-70
2021/07/12 11:15:47;;;;;;;5.90;2.72;;;;;;;30.56;45.67;101136.28;10119467;28;20101;-70
2021/07/12 11:21:09;;;;;;;6.18;3.00;;;;;;;30.41;40.38;101119.78;10115734;28;20050;-69
2021/07/12 11:26:27;;;;;;;7.80;3.05;;;;;;;30.21;40.30;101121.91;10103914;28;20138;-69
2021/07/12 11:31:46;;;;;;;4.13;2.83;;;;;;;30.19;44.85;101113.91;10097911;28;20049;-69
2021/07/12 11:37:04;;;;;;;4.20;2.88;;;;;;;30.54;43.76;101116.19;10109855;28;20528;-69
2021/07/12 11:42:19;;;;;;;4.93;2.90;;;;;;;30.09;46.10;101111.38;10113727;28;20039;-70
2021/07/12 11:47:19;;;;;;;6.22;3.03;;;;;;;29.15;44.89;101104.44;10109210;28;20567;-69
2021/07/12 11:52:16;;;;;;;5.32;3.08;;;;;;;28.28;48.40;101096.94;10106410;28;20030;-69
2021/07/12 11:57:14;;;;;;;5.25;2.78;;;;;;;27.69;47.75;101094.78;10103636;28;20074;-69
2021/07/12 12:02:14;;;;;;;9.50;2.90;;;;;;;27.89;47.61;101084.38;10118594;28;20081;-69
2021/07/12 12:07:27;;;;;;;4.22;3.15;;;;;;;28.21;46.63;101071.75;10114303;28;20062;-69
2021/07/12 12:12:41;;;;;;;5.15;2.75;;;;;;;27.68;48.91;101079.13;10106301;28;20191;-69
2021/07/12 12:17:43;;;;;;;5.40;2.70;;;;;;;27.54;51.06;101073.75;10103804;28;20049;-69
2021/07/12 12:22:56;;;;;;;4.38;2.92;;;;;;;27.64;49.60;101062.34;10103498;28;20039;-68
2021/07/12 12:27:53;;;;;;;3.80;2.83;;;;;;;27.67;50.75;101060.69;10095462;28;20440;-66
2021/07/12 12:32:58;;;;;;;6.88;3.45;;;;;;;27.19;51.17;101070.25;10105536;28;20043;-68
2021/07/12 12:38:07;;;;;;;6.82;3.38;;;;;;;26.55;52.41;101061.53;10092170;28;20413;-70
2021/07/12 12:43:11;;;;;;;5.45;3.10;;;;;;;26.02;52.78;101052.50;10107699;28;20053;-70
2021/07/12 12:48:11;;;;;;;4.50;2.90;;;;;;;25.80;55.29;101063.06;10103036;28;20077;-70
2021/07/12 12:53:09;;;;;;;7.68;3.95;;;;;;;25.59;55.82;101052.06;10103939;28;20039;-70
2021/07/12 12:58:08;;;;;;;8.77;3.40;;;;;;;25.58;56.03;101047.69;10097963;28;20054;-69
2021/07/12 13:03:16;;;;;;;4.90;3.53;;;;;;;25.52;56.93;101066.13;10103152;28;20130;-69
2021/07/12 13:08:13;;;;;;;5.72;3.30;;;;;;;25.34;56.05;101064.28;10091137;28;20071;-70
2021/07/12 13:13:10;;;;;;;5.57;4.00;;;;;;;25.01;59.64;101062.06;10098292;28;20035;-69
2021/07/12 13:18:10;;;;;;;6.40;4.80;;;;;;;24.74;63.61;101065.41;10082945;28;20070;-69
2021/07/12 13:23:07;;;;;;;14.57;6.07;;;;;;;24.49;66.09;101065.53;10101798;28;20523;-69
2021/07/12 13:28:30;;;;;;;7.25;5.78;;;;;;;24.39;67.15;101057.94;10104363;28;20097;-70
2021/07/12 13:33:28;;;;;;;6.10;4.72;;;;;;;24.55;64.65;101045.16;10102931;28;20046;-70
2021/07/12 13:38:25;;;;;;;7.60;5.82;;;;;;;24.78;62.00;101032.63;10113044;28;20061;-70
2021/07/12 13:43:21;;;;;;;5.32;3.90;;;;;;;24.81;62.95;101054.22;10104358;28;20043;-70
2021/07/12 13:48:17;;;;;;;6.15;5.15;;;;;;;24.77;66.37;101045.03;10103476;28;20493;-70
2021/07/12 13:53:14;;;;;;;8.95;4.97;;;;;;;24.66;63.63;101038.69;10107684;28;20460;-70
2021/07/12 13:58:11;;;;;;;9.60;5.22;;;;;;;24.57;64.12;101033.53;10105335;28;20427;-69
2021/07/12 14:03:08;;;;;;;6.75;5.20;;;;;;;24.50;63.89;101039.16;10097452;28;20106;-69
2021/07/12 14:08:05;;;;;;;7.25;5.10;;;;;;;24.46;64.78;101039.16;10108387;28;20050;-70
2021/07/12 14:13:01;;;;;;;6.35;5.00;;;;;;;24.41;65.39;101039.56;10104710;28;20035;-70
2021/07/12 14:17:58;;;;;;;6.47;4.78;;;;;;;24.39;64.20;101039.16;10106448;28;20516;-70
2021/07/12 14:22:54;;;;;;;6.13;4.40;;;;;;;24.44;63.73;101040.75;10103984;28;20074;-69
2021/07/12 14:27:51;;;;;;;5.32;4.20;;;;;;;24.61;63.03;101030.75;10107390;28;20051;-70
2021/07/12 14:32:48;;;;;;;6.25;3.80;;;;;;;24.82;62.64;101019.44;10106240;28;20070;-70
2021/07/12 14:37:44;;;;;;;6.60;4.20;;;;;;;25.01;63.46;101017.31;10095872;28;20142;-70
2021/07/12 14:42:41;;;;;;;4.55;3.10;;;;;;;25.14;59.29;101005.22;10099388;28;20074;-70
2021/07/12 14:47:37;;;;;;;4.57;2.80;;;;;;;25.34;59.57;100997.13;10092494;28;20059;-71
2021/07/12 14:52:34;;;;;;;5.45;3.53;;;;;;;25.40;57.97;100989.84;10091110;28;20097;-68
2021/07/12 14:57:31;;;;;;;6.32;3.33;;;;;;;25.43;59.49;100991.03;10091856;28;20063;-67
2021/07/12 15:02:31;;;;;;;4.38;2.92;;;;;;;25.42;59.36;100991.47;10097968;28;20094;-67
2021/07/12 15:07:28;;;;;;;3.50;2.58;;;;;;;25.44;59.52;100989.03;10095340;28;20055;-67
2021/07/12 15:12:25;;;;;;;5.15;2.83;;;;;;;25.42;59.25;100991.47;10103474;28;20101;-68
2021/07/12 15:17:22;;;;;;;4.10;2.67;;;;;;;25.36;59.13;100983.47;10103021;28;20050;-67
2021/07/12 15:22:19;;;;;;;4.65;3.03;;;;;;;25.33;58.46;100984.31;10107494;28;20057;-68
2021/07/12 15:27:16;;;;;;;5.97;3.00;;;;;;;25.36;60.64;100977.09;10092847;28;20051;-68
2021/07/12 15:32:12;;;;;;;5.05;3.05;;;;;;;25.35;59.48;100976.31;10095397;28;20050;-69
2021/07/12 15:37:09;;;;;;;6.55;3.00;;;;;;;25.30;57.18;100975.97;10094549;28;20046;-69
2021/07/12 15:42:06;;;;;;;4.65;2.72;;;;;;;25.33;58.28;100973.13;10100087;28;20123;-69
2021/07/12 15:47:04;;;;;;;4.35;2.90;;;;;;;25.60;57.77;100969.69;10090625;28;20085;-68
2021/07/12 15:52:01;;;;;;;5.95;3.30;;;;;;;25.98;56.95;100961.31;10088759;28;20050;-68
2021/07/12 15:56:59;;;;;;;5.15;2.78;;;;;;;25.92;55.65;100974.16;10099022;28;20094;-68
2021/07/12 16:01:56;;;;;;;6.28;3.00;;;;;;;25.69;57.62;100964.41;10115853;28;20039;-71
2021/07/12 16:06:55;;;;;;;6.35;3.53;;;;;;;25.45;57.46;100965.44;10106242;28;20410;-69
2021/07/12 16:11:52;;;;;;;4.45;3.13;;;;;;;25.34;58.28;100957.94;10103315;28;20456;-67
2021/07/12 16:16:48;;;;;;;3.78;2.95;;;;;;;25.30;58.38;100951.56;10096445;28;20096;-69
2021/07/12 16:21:46;;;;;;;5.35;3.10;;;;;;;25.42;55.54;100941.06;10102901;28;20535;-70
2021/07/12 16:26:44;;;;;;;5.25;3.00;;;;;;;26.31;56.87;100928.84;10086121;28;20057;-71
2021/07/12 16:31:41;;;;;;;4.10;3.17;;;;;;;27.16;55.53;100930.78;10106922;28;20042;-71
2021/07/12 16:36:39;;;;;;;4.70;2.92;;;;;;;28.01;52.68;100927.63;10105643;28;20094;-70
2021/07/12 16:41:37;;;;;;;4.85;3.00;;;;;;;28.44;51.37;100926.69;10084511;28;20412;-68
2021/07/12 16:46:36;;;;;;;3.65;2.88;;;;;;;28.25;49.55;100915.06;10093343;28;20421;-68
2021/07/12 16:51:34;;;;;;;7.60;5.07;;;;;;;27.87;51.66;100921.09;10095197;28;20085;-69
2021/07/12 16:56:31;;;;;;;4.38;3.40;;;;;;;27.26;52.68;100925.00;10096708;28;20051;-69
2021/07/12 17:01:28;;;;;;;3.92;2.80;;;;;;;26.85;53.70;100922.47;10090831;28;20956;-69
2021/07/12 17:06:25;;;;;;;5.30;3.42;;;;;;;26.59;55.50;100919.25;10085174;28;20050;-70
2021/07/12 17:11:22;;;;;;;5.25;3.90;;;;;;;26.32;55.49;100929.63;10087157;28;20071;-70
2021/07/12 17:16:19;;;;;;;5.70;3.60;;;;;;;26.07;56.13;100939.19;10098898;28;20055;-70
2021/07/12 17:21:16;;;;;;;4.68;3.42;;;;;;;25.86;56.39;100942.22;10091695;28;20094;-70
2021/07/12 17:26:12;;;;;;;6.95;3.60;;;;;;;25.67;57.13;100936.00;10096377;28;20046;-70
2021/07/12 17:31:09;;;;;;;5.07;3.42;;;;;;;25.55;57.34;100944.91;10085959;28;20046;-69
2021/07/12 17:36:06;;;;;;;5.90;3.63;;;;;;;25.47;58.82;100938.59;10094233;28;20553;-69
2021/07/12 17:41:12;;;;;;;7.13;3.55;;;;;;;25.43;58.71;100939.84;10091726;28;20046;-70
2021/07/12 17:46:10;;;;;;;5.60;4.18;;;;;;;25.37;61.00;100934.72;10074366;28;20528;-70
2021/07/12 17:51:06;;;;;;;5.78;3.60;;;;;;;25.36;62.01;100944.31;10088448;28;20093;-71
2021/07/12 17:56:04;;;;;;;4.70;3.67;;;;;;;25.49;60.29;100941.00;10090751;28;20046;-73
2021/07/12 18:01:03;;;;;;;5.05;4.32;;;;;;;25.49;61.24;100941.00;10097973;28;20401;-70
2021/07/12 18:06:00;;;;;;;7.47;4.22;;;;;;;25.34;60.39;100940.34;10096987;28;20050;-70
2021/07/12 18:10:57;;;;;;;5.13;4.18;;;;;;;25.23;61.83;100951.63;10095382;28;20077;-70
2021/07/12 18:15:54;;;;;;;6.20;4.20;;;;;;;25.04;61.63;100938.16;10091176;28;20067;-70
2021/07/12 18:20:51;;;;;;;5.95;3.58;;;;;;;24.87;60.81;100946.28;10083014;28;20051;-70
2021/07/12 18:25:48;;;;;;;5.20;4.13;;;;;;;24.80;61.23;100951.16;10089228;28;20169;-70
2021/07/12 18:30:51;;;;;;;4.63;3.65;;;;;;;24.65;61.67;100956.03;10087371;28;20110;-72
2021/07/12 18:35:49;;;;;;;6.30;3.92;;;;;;;24.57;62.45;100955.28;10067409;28;20141;-70
2021/07/12 18:40:46;;;;;;;8.90;3.80;;;;;;;24.49;62.87;100965.72;10087262;28;20102;-71
2021/07/12 18:45:42;;;;;;;7.40;3.30;;;;;;;24.42;62.76;100965.72;10081289;28;20070;-69
2021/07/12 18:50:40;;;;;;;9.77;4.03;;;;;;;24.36;63.71;100962.53;10093194;28;20046;-69
2021/07/12 18:55:37;;;;;;;6.85;3.83;;;;;;;24.29;63.50;100961.78;10101894;28;20042;-70
2021/07/12 19:00:34;;;;;;;5.00;3.72;;;;;;;24.22;63.45;100967.41;10102041;28;20180;-71
2021/07/12 19:05:31;;;;;;;7.70;4.13;;;;;;;24.16;63.48;100981.00;10095556;28;20169;-70
2021/07/12 19:10:28;;;;;;;7.28;4.80;;;;;;;24.11;64.19;100979.44;10104142;28;20133;-70
2021/07/12 19:15:25;;;;;;;6.13;4.35;;;;;;;24.03;64.25;100989.03;10090778;28;20101;-69
2021/07/12 19:20:27;;;;;;;6.80;3.92;;;;;;;23.95;64.15;100984.66;10097753;28;20085;-70
2021/07/12 19:25:35;;;;;;;11.67;4.20;;;;;;;23.87;64.54;100977.50;10095979;28;20504;-70
2021/07/12 19:30:33;;;;;;;6.90;4.15;;;;;;;23.77;65.20;100970.75;10100380;28;20463;-70
2021/07/12 19:35:29;;;;;;;6.30;4.00;;;;;;;23.68;66.24;100985.09;10104757;28;20543;-70
2021/07/12 19:40:27;;;;;;;7.72;3.67;;;;;;;23.57;65.43;100977.94;10104243;28;20074;-71
2021/07/12 19:45:25;;;;;;;10.55;4.70;;;;;;;23.49;67.72;100982.72;10099423;28;20047;-73
2021/07/12 19:50:23;;;;;;;6.38;4.38;;;;;;;23.37;67.33;100980.31;10087566;28;20509;-69
2021/07/12 19:55:23;;;;;;;8.30;5.07;;;;;;;23.29;68.94;100985.91;10102441;28;20057;-68
2021/07/12 20:00:25;;;;;;;10.65;4.45;;;;;;;23.19;67.46;100986.72;10111033;28;20665;-68
2021/07/12 20:05:24;;;;;;;10.27;4.30;;;;;;;23.17;68.11;100989.09;10107249;28;20145;-68
2021/07/12 20:10:22;;;;;;;9.20;4.70;;;;;;;23.08;68.67;100988.69;10111072;28;20055;-70
2021/07/12 20:15:20;;;;;;;12.60;5.07;;;;;;;23.01;68.14;100985.91;10102123;28;20146;-70
2021/07/12 20:20:19;;;;;;;9.20;4.63;;;;;;;22.95;67.96;100987.44;10094223;28;20051;-70
2021/07/12 20:25:15;;;;;;;9.02;4.53;;;;;;;22.93;69.47;100985.09;10098140;28;20074;-70
2021/07/12 20:30:14;;;;;;;8.90;4.65;;;;;;;22.87;69.60;100986.66;10102130;28;20055;-70
2021/07/12 20:35:12;;;;;;;11.00;5.40;;;;;;;22.80;69.12;100987.44;10109757;28;20074;-66
2021/07/12 20:40:11;;;;;;;6.00;4.25;;;;;;;22.78;68.67;100984.25;10110979;28;20113;-67
2021/07/12 20:45:10;;;;;;;6.90;4.32;;;;;;;22.73;69.27;100981.06;10101648;28;20282;-67
2021/07/12 20:50:08;;;;;;;9.73;5.55;;;;;;;22.68;68.75;100985.03;10109017;28;20043;-67
2021/07/12 20:55:07;;;;;;;8.00;4.60;;;;;;;22.62;69.48;100975.44;10107540;28;20047;-69
2021/07/12 21:00:16;;;;;;;10.40;5.65;;;;;;;22.55;69.86;100975.44;10106335;28;20483;-69
2021/07/12 21:05:13;;;;;;;8.25;4.72;;;;;;;22.53;70.40;100977.81;10109360;28;20131;-69
2021/07/12 21:10:10;;;;;;;7.35;5.20;;;;;;;22.53;70.32;100977.81;10109406;28;20492;-69
2021/07/12 21:15:07;;;;;;;8.60;5.00;;;;;;;22.54;70.71;100979.41;10101202;28;20123;-68
2021/07/12 21:20:04;;;;;;;12.02;5.40;;;;;;;22.45;69.49;100972.22;10103102;28;20176;-69
2021/07/12 21:25:02;;;;;;;6.15;4.43;;;;;;;22.43;68.67;100971.81;10109964;28;20039;-68
2021/07/12 21:29:59;;;;;;;6.32;4.75;;;;;;;22.43;70.48;100969.03;10103693;28;20051;-71
2021/07/12 21:34:56;;;;;;;6.85;4.50;;;;;;;22.39;71.96;100962.63;10108919;28;20089;-72
2021/07/12 21:39:52;;;;;;;8.15;5.55;;;;;;;22.28;71.34;100956.25;10108872;28;20505;-71
2021/07/12 21:44:48;;;;;;;6.43;4.90;;;;;;;22.23;71.45;100959.41;10109045;28;20046;-71
2021/07/12 21:49:45;;;;;;;8.60;5.43;;;;;;;22.19;71.88;100972.50;10108483;28;20527;-68
2021/07/12 21:54:42;;;;;;;7.72;5.20;;;;;;;22.18;72.73;100962.53;10105418;28;20050;-69
2021/07/12 21:59:39;;;;;;;7.15;5.57;;;;;;;22.10;71.75;100966.50;10110763;28;20117;-69
2021/07/12 22:04:35;;;;;;;10.30;5.15;;;;;;;22.12;74.24;100970.47;10105058;28;20146;-74
2021/07/12 22:09:32;;;;;;;10.80;5.97;;;;;;;22.07;74.25;100970.84;10111176;28;20063;-71
2021/07/12 22:14:29;;;;;;;8.60;6.10;;;;;;;22.02;74.93;100972.03;10097866;28;20043;-70
2021/07/12 22:19:25;;;;;;;7.63;5.85;;;;;;;21.98;74.86;100979.56;10109287;28;20078;-68
2021/07/12 22:24:22;;;;;;;7.72;5.43;;;;;;;21.96;75.38;100984.72;10101360;28;20493;-69
2021/07/12 22:29:22;;;;;;;10.18;5.65;;;;;;;21.92;75.70;100995.03;10099903;28;20098;-68
2021/07/12 22:34:20;;;;;;;9.27;6.15;;;;;;;21.89;75.92;101000.59;10104103;28;20604;-69
2021/07/12 22:39:17;;;;;;;9.48;6.50;;;;;;;21.81;74.44;100999.72;10096559;28;20042;-68
2021/07/12 22:44:14;;;;;;;9.60;6.07;;;;;;;21.80;76.81;100989.78;10105567;28;20078;-68
2021/07/12 22:49:11;;;;;;;10.70;6.32;;;;;;;21.76;75.32;100991.75;10067391;23;20511;-69
2021/07/12 22:54:07;;;;;;;6.82;5.55;;;;;;;21.71;74.52;101000.47;10038639;28;20095;-69
2021/07/12 22:59:04;;;;;;;11.35;6.53;;;;;;;21.71;75.80;100995.69;10031712;29;20071;-69